Time;durP1;ratioP1;P1;durP2;ratioP2;P2;SDS_P1;SDS_P2;PMS_P1;PMS_P2;Temp;Humidity;BMP_temperature;BMP_pressure;BME280_temperature;BME280_humidity;BME280_pressure;Samples;Min_cycle;Max_cycle;Signal;HPM_P1;HPM_P2
2022/11/05 00:10:43;;;;;;;29.43;22.33;;;;;;;;;;5136547;27;19910;-83
2022/11/05 00:18:39;;;;;;;32.13;26.73;;;;;;;;;;5136748;27;20083;-82
2022/11/05 00:25:12;;;;;;;32.33;26.98;;;;;;;;;;5136632;27;20107;-83
2022/11/05 00:26:36;;;;;;;33.42;28.10;;;;;;;;;;5136524;27;20042;-83
2022/11/05 00:29:02;;;;;;;35.35;28.65;;;;;;;;;;5136224;27;20152;-82
2022/11/05 00:31:28;;;;;;;33.25;27.70;;;;;;;;;;5136399;27;20079;-82
2022/11/05 00:33:55;;;;;;;32.72;27.92;;;;;;;;;;5136121;27;20019;-83
2022/11/05 00:36:21;;;;;;;37.35;27.63;;;;;;;;;;5136094;27;20104;-83
2022/11/05 00:38:47;;;;;;;33.53;27.23;;;;;;;;;;5117652;27;20027;-83
2022/11/05 00:41:13;;;;;;;37.40;28.00;;;;;;;;;;5136028;27;20134;-82
2022/11/05 00:46:23;;;;;;;34.25;27.83;;;;;;;;;;5136063;27;20092;-83
2022/11/05 00:51:34;;;;;;;;;;;;;;;;;;5136743;27;20038;-83
2022/11/05 00:54:00;;;;;;;36.05;27.67;;;;;;;;;;5135478;27;20270;-83
2022/11/05 00:56:26;;;;;;;38.47;28.48;;;;;;;;;;5135749;27;20027;-83
2022/11/05 00:58:52;;;;;;;37.50;29.48;;;;;;;;;;5135536;27;20439;-83
2022/11/05 01:01:18;;;;;;;33.70;27.45;;;;;;;;;;5117268;27;20019;-83
2022/11/05 01:03:44;;;;;;;36.75;29.80;;;;;;;;;;5135445;27;20028;-83
2022/11/05 01:06:12;;;;;;;29.63;25.27;;;;;;;;;;5135714;27;20023;-83
2022/11/05 01:08:38;;;;;;;37.55;27.30;;;;;;;;;;5135639;27;20026;-83
2022/11/05 01:11:12;;;;;;;38.08;27.15;;;;;;;;;;5134874;27;20387;-83
2022/11/05 01:13:38;;;;;;;34.57;26.67;;;;;;;;;;5135489;27;20111;-83
2022/11/05 01:16:06;;;;;;;32.28;27.85;;;;;;;;;;5135526;27;20243;-83
2022/11/05 01:18:32;;;;;;;33.58;26.75;;;;;;;;;;5135427;27;20042;-83
2022/11/05 01:20:58;;;;;;;39.65;31.05;;;;;;;;;;5135059;27;20045;-83
2022/11/05 01:23:24;;;;;;;35.58;28.75;;;;;;;;;;5135327;27;20030;-83
2022/11/05 01:25:50;;;;;;;39.20;30.17;;;;;;;;;;5135039;27;20532;-83
2022/11/05 01:28:16;;;;;;;35.55;29.30;;;;;;;;;;5135285;27;20027;-83
2022/11/05 01:30:42;;;;;;;36.30;29.52;;;;;;;;;;5135049;27;20072;-83
2022/11/05 01:33:08;;;;;;;34.15;29.38;;;;;;;;;;5134957;27;20027;-83
2022/11/05 01:35:34;;;;;;;39.95;29.30;;;;;;;;;;5135050;27;20470;-83
2022/11/05 01:38:00;;;;;;;38.65;28.73;;;;;;;;;;5134806;27;20094;-83
2022/11/05 01:40:27;;;;;;;33.25;28.85;;;;;;;;;;5134929;27;20378;-83
2022/11/05 01:42:53;;;;;;;37.80;29.13;;;;;;;;;;5134645;27;20424;-83
2022/11/05 01:45:38;;;;;;;37.92;30.05;;;;;;;;;;5134864;27;20020;-83
2022/11/05 01:48:24;;;;;;;37.20;29.83;;;;;;;;;;5134784;27;20027;-83
2022/11/05 01:50:59;;;;;;;36.55;29.00;;;;;;;;;;5134546;27;20363;-83
2022/11/05 01:53:29;;;;;;;39.15;29.10;;;;;;;;;;5134324;27;20047;-83
2022/11/05 01:55:57;;;;;;;35.55;29.67;;;;;;;;;;5134537;27;20109;-83
2022/11/05 01:58:26;;;;;;;35.38;30.63;;;;;;;;;;5134513;27;20030;-83
2022/11/05 02:00:52;;;;;;;40.17;30.13;;;;;;;;;;5134638;27;20023;-83
2022/11/05 02:03:18;;;;;;;38.75;29.98;;;;;;;;;;5134366;27;20023;-83
2022/11/05 02:05:45;;;;;;;38.28;29.98;;;;;;;;;;5134440;27;20094;-83
2022/11/05 02:08:15;;;;;;;35.05;30.40;;;;;;;;;;5134231;27;20033;-83
2022/11/05 02:10:42;;;;;;;36.33;29.30;;;;;;;;;;5134518;27;20027;-83
2022/11/05 02:13:08;;;;;;;36.05;27.02;;;;;;;;;;5134104;27;20027;-84
2022/11/05 02:15:39;;;;;;;36.63;29.15;;;;;;;;;;5134361;27;20047;-83
2022/11/05 02:18:32;;;;;;;37.45;29.80;;;;;;;;;;5134099;27;20031;-83
2022/11/05 02:21:06;;;;;;;36.28;29.48;;;;;;;;;;5095188;27;20038;-83
2022/11/05 02:23:44;;;;;;;38.40;30.45;;;;;;;;;;5133369;27;20073;-84
2022/11/05 02:26:10;;;;;;;37.88;29.90;;;;;;;;;;5115561;27;20047;-83
2022/11/05 02:28:55;;;;;;;53.85;47.05;;;;;;;;;;5133803;27;20019;-84
2022/11/05 02:31:21;;;;;;;;;;;;;;;;;;5134317;27;20098;-83
2022/11/05 02:34:06;;;;;;;47.15;36.28;;;;;;;;;;5133729;27;20019;-83
2022/11/05 02:36:32;;;;;;;;;;;;;;;;;;5134093;27;20102;-83
2022/11/05 02:38:58;;;;;;;43.00;32.30;;;;;;;;;;5133663;27;19942;-84
2022/11/05 02:41:39;;;;;;;38.13;30.77;;;;;;;;;;5133742;27;20015;-83
2022/11/05 02:44:22;;;;;;;38.70;32.28;;;;;;;;;;5133621;27;20023;-83
2022/11/05 02:47:00;;;;;;;40.47;30.30;;;;;;;;;;5115259;27;20023;-83
2022/11/05 02:49:29;;;;;;;37.58;30.67;;;;;;;;;;5133724;27;20089;-83
2022/11/05 02:52:02;;;;;;;37.00;28.52;;;;;;;;;;5133737;27;20031;-84
2022/11/05 02:54:32;;;;;;;36.90;29.08;;;;;;;;;;5133423;27;20039;-83
2022/11/05 02:57:00;;;;;;;38.53;31.40;;;;;;;;;;5133533;27;20098;-83
2022/11/05 02:59:26;;;;;;;39.72;32.72;;;;;;;;;;5133561;27;20043;-83
2022/11/05 03:01:52;;;;;;;38.63;29.67;;;;;;;;;;5133602;27;20023;-83
2022/11/05 03:04:19;;;;;;;41.28;32.05;;;;;;;;;;5133547;28;20019;-83
2022/11/05 03:06:51;;;;;;;41.75;30.38;;;;;;;;;;5133465;28;20034;-83
2022/11/05 03:09:20;;;;;;;37.10;30.02;;;;;;;;;;5133516;28;20091;-83
2022/11/05 03:11:55;;;;;;;42.50;31.75;;;;;;;;;;5133655;28;20027;-83
2022/11/05 03:14:40;;;;;;;40.72;31.88;;;;;;;;;;5133248;28;20482;-83
2022/11/05 03:17:09;;;;;;;36.40;29.95;;;;;;;;;;5133299;28;20027;-83
2022/11/05 03:19:35;;;;;;;42.25;33.00;;;;;;;;;;5133511;28;20489;-83
2022/11/05 03:22:07;;;;;;;37.92;30.67;;;;;;;;;;5133161;28;20529;-83
2022/11/05 03:24:35;;;;;;;39.15;31.38;;;;;;;;;;5133384;28;20030;-82
2022/11/05 03:27:04;;;;;;;41.72;32.28;;;;;;;;;;5133269;28;20019;-83
2022/11/05 03:29:33;;;;;;;38.67;31.83;;;;;;;;;;5133415;28;20031;-83
2022/11/05 03:32:00;;;;;;;42.55;34.10;;;;;;;;;;5133104;28;20137;-82
2022/11/05 03:34:30;;;;;;;42.55;33.63;;;;;;;;;;5135030;27;20034;-82
2022/11/05 03:36:57;;;;;;;39.35;33.42;;;;;;;;;;5118851;27;20032;-82
2022/11/05 03:39:26;;;;;;;42.85;32.97;;;;;;;;;;5137331;27;20102;-82
2022/11/05 03:41:53;;;;;;;41.45;33.25;;;;;;;;;;5137082;27;20471;-82
2022/11/05 03:44:23;;;;;;;44.00;35.22;;;;;;;;;;5137253;27;20034;-82
2022/11/05 03:46:50;;;;;;;43.10;33.67;;;;;;;;;;5137019;27;20030;-82
2022/11/05 03:49:20;;;;;;;42.08;32.40;;;;;;;;;;5137147;27;20055;-82
2022/11/05 03:51:55;;;;;;;43.75;34.75;;;;;;;;;;5136874;27;20035;-82
2022/11/05 03:54:22;;;;;;;44.55;33.22;;;;;;;;;;5136381;27;20062;-82
2022/11/05 03:56:50;;;;;;;42.72;34.50;;;;;;;;;;5136730;27;20031;-82
2022/11/05 03:59:17;;;;;;;40.58;34.65;;;;;;;;;;5137004;27;20370;-82
2022/11/05 04:01:43;;;;;;;41.15;32.72;;;;;;;;;;5136724;27;20061;-82
2022/11/05 04:04:09;;;;;;;44.67;34.47;;;;;;;;;;5136759;27;20050;-82
2022/11/05 04:14:50;;;;;;;39.67;34.47;;;;;;;;;;5136659;27;20030;-81
2022/11/05 04:17:16;;;;;;;42.28;33.70;;;;;;;;;;5136513;27;20394;-82
2022/11/05 04:25:15;;;;;;;45.53;34.05;;;;;;;;;;5136753;27;20031;-82
2022/11/05 04:27:41;;;;;;;40.63;34.60;;;;;;;;;;5136218;27;20047;-82
2022/11/05 04:30:23;;;;;;;40.95;33.63;;;;;;;;;;5136294;27;20055;-82
2022/11/05 04:32:55;;;;;;;38.83;32.90;;;;;;;;;;5136281;27;20031;-82
2022/11/05 04:35:21;;;;;;;39.17;32.72;;;;;;;;;;5135949;27;20026;-82
2022/11/05 04:37:47;;;;;;;43.22;34.00;;;;;;;;;;5136081;27;20099;-82
2022/11/05 04:40:13;;;;;;;38.45;32.15;;;;;;;;;;5135902;27;20026;-82
2022/11/05 04:42:39;;;;;;;41.17;33.97;;;;;;;;;;5136071;27;20022;-82
2022/11/05 04:45:05;;;;;;;40.22;32.28;;;;;;;;;;5117127;27;20066;-82
2022/11/05 04:47:31;;;;;;;37.80;31.70;;;;;;;;;;5116882;27;20351;-82
2022/11/05 04:49:57;;;;;;;45.55;37.20;;;;;;;;;;5135917;27;20027;-82
2022/11/05 04:52:23;;;;;;;40.00;32.50;;;;;;;;;;5135281;27;20545;-83
2022/11/05 04:54:49;;;;;;;41.08;33.00;;;;;;;;;;5117284;27;20050;-82
2022/11/05 04:57:17;;;;;;;41.92;33.92;;;;;;;;;;5135665;27;20078;-84
2022/11/05 04:59:43;;;;;;;35.88;30.25;;;;;;;;;;5135856;27;20015;-83
2022/11/05 05:02:09;;;;;;;41.90;33.45;;;;;;;;;;5135654;27;20189;-82
2022/11/05 05:04:35;;;;;;;44.58;34.42;;;;;;;;;;5120337;27;20027;-83
2022/11/05 05:07:01;;;;;;;43.22;33.78;;;;;;;;;;5114923;28;20440;-82
2022/11/05 05:09:27;;;;;;;43.67;35.67;;;;;;;;;;5127645;27;20027;-83
2022/11/05 05:11:53;;;;;;;51.22;42.38;;;;;;;;;;5135034;27;20034;-83
2022/11/05 05:14:19;;;;;;;45.42;38.10;;;;;;;;;;5135252;27;20023;-82
2022/11/05 05:16:45;;;;;;;47.38;38.08;;;;;;;;;;5135438;27;20023;-82
2022/11/05 05:19:11;;;;;;;49.28;42.50;;;;;;;;;;5135240;27;20367;-82
2022/11/05 05:21:37;;;;;;;48.75;41.80;;;;;;;;;;5135206;27;20071;-82
2022/11/05 05:24:04;;;;;;;54.22;47.03;;;;;;;;;;5135380;27;20038;-82
2022/11/05 05:26:30;;;;;;;51.58;40.78;;;;;;;;;;5097977;28;20059;-82
2022/11/05 05:28:57;;;;;;;49.22;38.88;;;;;;;;;;5114552;28;20031;-82
2022/11/05 05:31:23;;;;;;;43.63;35.70;;;;;;;;;;5123366;27;20027;-82
2022/11/05 05:33:52;;;;;;;41.35;36.00;;;;;;;;;;5134956;27;20156;-83
2022/11/05 05:36:18;;;;;;;44.55;37.70;;;;;;;;;;5134977;27;20047;-82
2022/11/05 05:38:44;;;;;;;40.13;34.65;;;;;;;;;;5134930;27;20031;-83
2022/11/05 05:41:10;;;;;;;44.85;37.00;;;;;;;;;;5134920;27;20040;-82
2022/11/05 05:43:36;;;;;;;43.40;36.88;;;;;;;;;;5134758;27;20378;-82
2022/11/05 05:46:06;;;;;;;42.47;35.90;;;;;;;;;;5134949;27;20566;-82
2022/11/05 05:48:32;;;;;;;42.03;35.08;;;;;;;;;;5134562;27;20035;-82
2022/11/05 05:51:17;;;;;;;45.33;36.33;;;;;;;;;;5134806;27;20366;-83
2022/11/05 05:53:43;;;;;;;40.95;34.70;;;;;;;;;;5134459;27;20047;-82
2022/11/05 05:56:10;;;;;;;41.20;34.28;;;;;;;;;;5134734;27;20054;-82
2022/11/05 05:58:37;;;;;;;44.75;35.83;;;;;;;;;;5134276;27;20094;-82
2022/11/05 06:01:05;;;;;;;42.30;33.95;;;;;;;;;;5134638;27;20026;-81
2022/11/05 06:03:31;;;;;;;39.25;32.00;;;;;;;;;;5134232;27;20146;-82
2022/11/05 06:06:11;;;;;;;43.15;32.60;;;;;;;;;;5131968;27;20083;-82
2022/11/05 06:08:38;;;;;;;39.25;31.90;;;;;;;;;;5134504;27;20550;-81
2022/11/05 06:11:05;;;;;;;39.22;32.00;;;;;;;;;;5134279;27;20054;-82
2022/11/05 06:13:31;;;;;;;40.30;31.92;;;;;;;;;;5134170;27;20352;-82
2022/11/05 06:16:01;;;;;;;40.13;31.27;;;;;;;;;;5116569;27;20031;-82
2022/11/05 06:18:27;;;;;;;35.63;29.15;;;;;;;;;;5095353;28;20028;-81
2022/11/05 06:20:54;;;;;;;35.78;28.70;;;;;;;;;;5120592;27;20497;-81
2022/11/05 06:23:21;;;;;;;36.88;28.38;;;;;;;;;;5132743;27;20058;-82
2022/11/05 06:25:47;;;;;;;32.45;28.30;;;;;;;;;;5134052;27;20106;-82
2022/11/05 06:28:13;;;;;;;31.75;27.13;;;;;;;;;;5115543;27;20027;-82
2022/11/05 06:30:39;;;;;;;34.30;28.48;;;;;;;;;;5134062;27;20023;-82
2022/11/05 06:33:05;;;;;;;32.10;27.23;;;;;;;;;;5127859;27;20208;-83
2022/11/05 06:44:51;;;;;;;37.08;32.78;;;;;;;;;;5050122;28;20021;-82
2022/11/05 06:47:23;;;;;;;41.47;32.42;;;;;;;;;;5130136;27;20039;-82
2022/11/05 06:49:49;;;;;;;39.63;32.35;;;;;;;;;;5115145;27;20102;-82
2022/11/05 06:52:18;;;;;;;35.83;29.17;;;;;;;;;;5125431;27;20164;-84
2022/11/05 06:54:47;;;;;;;37.38;29.15;;;;;;;;;;5104054;27;20043;-85
2022/11/05 06:57:13;;;;;;;41.80;29.65;;;;;;;;;;5104173;27;20073;-83
2022/11/05 07:02:50;;;;;;;35.70;28.33;;;;;;;;;;5113009;28;20031;-84
2022/11/05 07:05:17;;;;;;;37.25;28.30;;;;;;;;;;5094884;28;20152;-84
2022/11/05 07:07:44;;;;;;;37.13;27.77;;;;;;;;;;5126863;28;20482;-84
2022/11/05 07:10:12;;;;;;;34.97;28.25;;;;;;;;;;5111898;28;20023;-83
2022/11/05 07:12:49;;;;;;;34.45;27.05;;;;;;;;;;5093907;28;20027;-85
2022/11/05 07:15:15;;;;;;;30.70;26.55;;;;;;;;;;5094332;28;20023;-83
2022/11/05 07:17:42;;;;;;;34.35;26.45;;;;;;;;;;5112742;28;20016;-83
2022/11/05 07:20:08;;;;;;;32.33;27.23;;;;;;;;;;5094220;28;20479;-84
2022/11/05 07:22:35;;;;;;;36.45;27.08;;;;;;;;;;5094172;28;20019;-84
2022/11/05 07:25:01;;;;;;;33.05;26.63;;;;;;;;;;5114893;27;20034;-82
2022/11/05 07:27:30;;;;;;;35.15;27.92;;;;;;;;;;5114496;28;20124;-82
2022/11/05 07:30:06;;;;;;;46.95;34.65;;;;;;;;;;5131568;27;20055;-82
2022/11/05 07:32:36;;;;;;;52.42;38.58;;;;;;;;;;5110560;27;20024;-84
2022/11/05 07:35:02;;;;;;;31.42;25.88;;;;;;;;;;5127482;27;20026;-81
2022/11/05 07:37:28;;;;;;;32.55;27.27;;;;;;;;;;5130940;27;20047;-83
2022/11/05 07:39:54;;;;;;;32.45;25.83;;;;;;;;;;5126085;27;20020;-84
2022/11/05 07:42:20;;;;;;;31.40;24.98;;;;;;;;;;5100857;28;20398;-84
2022/11/05 07:44:46;;;;;;;30.77;24.73;;;;;;;;;;5105844;28;20027;-86
2022/11/05 07:47:12;;;;;;;31.25;26.02;;;;;;;;;;5132610;28;20023;-82
2022/11/05 07:49:38;;;;;;;30.55;25.92;;;;;;;;;;5129537;28;21393;-83
2022/11/05 07:52:04;;;;;;;40.63;33.88;;;;;;;;;;5122208;27;20031;-82
2022/11/05 07:54:30;;;;;;;42.83;34.75;;;;;;;;;;5132366;28;20482;-84
2022/11/05 07:56:57;;;;;;;40.53;32.58;;;;;;;;;;5114455;28;20164;-82
2022/11/05 07:59:29;;;;;;;35.75;29.65;;;;;;;;;;5114641;28;20431;-83
2022/11/05 08:01:55;;;;;;;30.30;24.70;;;;;;;;;;5129321;28;20031;-83
2022/11/05 08:04:21;;;;;;;34.83;25.85;;;;;;;;;;5128715;28;20027;-84
2022/11/05 08:06:47;;;;;;;29.80;25.63;;;;;;;;;;5128751;28;20402;-83
2022/11/05 08:09:13;;;;;;;32.28;25.90;;;;;;;;;;5132292;28;20019;-83
2022/11/05 08:11:39;;;;;;;29.33;23.88;;;;;;;;;;5131781;28;20064;-83
2022/11/05 08:14:05;;;;;;;29.10;25.95;;;;;;;;;;5131494;28;20026;-83
2022/11/05 08:16:32;;;;;;;29.42;26.30;;;;;;;;;;5132210;28;20092;-85
2022/11/05 08:18:58;;;;;;;28.30;23.73;;;;;;;;;;5132009;28;20502;-83
2022/11/05 08:21:24;;;;;;;28.35;24.80;;;;;;;;;;5107277;27;20023;-83
2022/11/05 08:23:50;;;;;;;34.47;25.45;;;;;;;;;;5135763;27;20023;-83
2022/11/05 08:26:16;;;;;;;37.22;23.55;;;;;;;;;;5133819;27;20060;-84
2022/11/05 08:28:42;;;;;;;35.10;25.10;;;;;;;;;;5134302;27;20061;-83
2022/11/05 08:31:08;;;;;;;32.22;23.40;;;;;;;;;;5135722;27;20023;-83
2022/11/05 08:33:34;;;;;;;27.45;23.25;;;;;;;;;;5135652;27;20034;-83
2022/11/05 08:36:04;;;;;;;24.70;21.10;;;;;;;;;;5121636;27;20547;-83
2022/11/05 08:38:30;;;;;;;28.13;21.52;;;;;;;;;;5117962;27;20473;-83
2022/11/05 08:40:57;;;;;;;29.38;24.33;;;;;;;;;;5098099;28;20445;-82
2022/11/05 08:43:23;;;;;;;29.85;24.75;;;;;;;;;;5115269;28;20068;-82
2022/11/05 08:45:49;;;;;;;31.42;22.17;;;;;;;;;;5115261;28;20420;-82
2022/11/05 08:48:16;;;;;;;35.70;28.75;;;;;;;;;;5099213;28;20490;-82
2022/11/05 08:50:43;;;;;;;31.27;22.58;;;;;;;;;;5115136;28;20027;-84
2022/11/05 08:53:09;;;;;;;38.00;23.10;;;;;;;;;;5103778;27;20047;-82
2022/11/05 08:55:37;;;;;;;26.30;21.52;;;;;;;;;;5135333;27;20042;-83
2022/11/05 08:58:11;;;;;;;27.20;22.50;;;;;;;;;;5116315;27;20027;-82
2022/11/05 09:00:37;;;;;;;28.27;21.23;;;;;;;;;;5125717;27;20153;-82
2022/11/05 09:03:05;;;;;;;22.50;19.27;;;;;;;;;;5133882;27;20102;-83
2022/11/05 09:05:36;;;;;;;26.02;20.13;;;;;;;;;;5134294;27;20042;-82
2022/11/05 09:08:03;;;;;;;22.80;19.92;;;;;;;;;;5134212;27;20023;-83
2022/11/05 09:10:29;;;;;;;24.85;19.73;;;;;;;;;;5113205;27;20037;-83
2022/11/05 09:12:55;;;;;;;27.15;20.30;;;;;;;;;;5134627;27;20016;-82
2022/11/05 09:15:22;;;;;;;24.40;19.50;;;;;;;;;;5134826;27;20522;-82
2022/11/05 09:17:48;;;;;;;23.95;19.73;;;;;;;;;;5134534;27;20030;-82
2022/11/05 09:20:14;;;;;;;25.83;19.50;;;;;;;;;;5116081;27;20428;-82
2022/11/05 09:22:40;;;;;;;24.75;19.40;;;;;;;;;;5134633;27;20015;-83
2022/11/05 09:25:06;;;;;;;22.15;18.67;;;;;;;;;;5115511;27;20020;-82
2022/11/05 09:27:33;;;;;;;23.63;18.92;;;;;;;;;;5131402;27;20094;-83
2022/11/05 09:29:59;;;;;;;29.58;19.42;;;;;;;;;;5133325;27;20492;-83
2022/11/05 09:32:25;;;;;;;25.30;18.63;;;;;;;;;;5134022;27;20102;-81
2022/11/05 09:34:51;;;;;;;26.40;20.42;;;;;;;;;;5122312;27;20030;-80
2022/11/05 09:37:19;;;;;;;28.52;19.15;;;;;;;;;;5124633;27;20016;-85
2022/11/05 09:39:45;;;;;;;23.42;19.30;;;;;;;;;;5127946;27;20019;-81
2022/11/05 09:42:13;;;;;;;29.80;18.40;;;;;;;;;;5129073;27;20016;-83
2022/11/05 09:44:39;;;;;;;19.88;17.48;;;;;;;;;;5125558;27;20031;-82
2022/11/05 09:47:07;;;;;;;23.33;17.35;;;;;;;;;;5131733;27;20376;-82
2022/11/05 09:49:45;;;;;;;24.30;17.58;;;;;;;;;;5134338;27;20034;-82
2022/11/05 09:52:13;;;;;;;22.95;18.08;;;;;;;;;;5128528;27;20038;-81
2022/11/05 09:54:39;;;;;;;23.58;19.00;;;;;;;;;;5112354;27;20039;-81
2022/11/05 09:57:07;;;;;;;20.52;17.40;;;;;;;;;;5128790;27;20042;-82
2022/11/05 09:59:38;;;;;;;21.85;16.98;;;;;;;;;;5132374;27;20027;-81
2022/11/05 10:02:15;;;;;;;19.45;16.42;;;;;;;;;;5125733;27;20023;-82
2022/11/05 10:05:06;;;;;;;24.02;17.67;;;;;;;;;;5124918;27;20463;-83
2022/11/05 10:08:06;;;;;;;21.00;17.85;;;;;;;;;;5109296;27;20030;-81
2022/11/05 10:10:52;;;;;;;47.90;19.67;;;;;;;;;;5127171;27;20039;-80
2022/11/05 10:13:18;;;;;;;22.95;17.05;;;;;;;;;;5132477;27;20052;-85
2022/11/05 10:16:03;;;;;;;21.05;17.05;;;;;;;;;;5132533;27;20110;-83
2022/11/05 10:18:34;;;;;;;25.60;16.65;;;;;;;;;;5116631;27;20482;-80
2022/11/05 10:21:00;;;;;;;24.33;17.05;;;;;;;;;;5128403;27;20020;-81
2022/11/05 10:23:27;;;;;;;20.55;16.95;;;;;;;;;;5114395;27;20028;-84
2022/11/05 10:25:55;;;;;;;19.25;16.75;;;;;;;;;;5122879;27;20055;-83
2022/11/05 10:28:22;;;;;;;20.67;16.98;;;;;;;;;;5132803;27;20042;-81
2022/11/05 10:30:51;;;;;;;24.23;16.35;;;;;;;;;;5133812;27;20023;-83
2022/11/05 10:33:41;;;;;;;22.92;16.63;;;;;;;;;;5130270;27;20023;-83
2022/11/05 10:36:10;;;;;;;22.17;17.25;;;;;;;;;;5118068;27;20035;-83
2022/11/05 10:38:36;;;;;;;23.60;17.38;;;;;;;;;;5127591;27;20031;-84
2022/11/05 10:41:14;;;;;;;18.20;15.82;;;;;;;;;;5125531;27;20029;-81
2022/11/05 10:43:51;;;;;;;21.92;16.42;;;;;;;;;;5110583;28;20492;-82
2022/11/05 10:46:20;;;;;;;20.85;17.65;;;;;;;;;;5113035;28;20110;-81
2022/11/05 10:48:49;;;;;;;20.30;16.40;;;;;;;;;;5094595;28;20120;-82
2022/11/05 10:51:15;;;;;;;22.38;16.10;;;;;;;;;;5123294;27;20031;-81
2022/11/05 10:53:48;;;;;;;19.13;16.42;;;;;;;;;;5133293;27;20120;-81
2022/11/05 10:56:28;;;;;;;18.70;14.63;;;;;;;;;;5133703;27;20050;-85
2022/11/05 10:58:55;;;;;;;19.80;14.82;;;;;;;;;;5132677;27;20167;-83
2022/11/05 11:01:23;;;;;;;19.17;14.75;;;;;;;;;;5110129;28;20470;-85
2022/11/05 11:03:50;;;;;;;19.23;13.27;;;;;;;;;;5147824;27;20046;-83
2022/11/05 11:06:27;;;;;;;17.65;14.40;;;;;;;;;;5133304;27;20381;-82
2022/11/05 11:08:54;;;;;;;18.80;15.25;;;;;;;;;;5111342;28;20144;-84
2022/11/05 11:11:34;;;;;;;20.38;14.30;;;;;;;;;;5127082;28;20026;-81
2022/11/05 11:14:01;;;;;;;18.73;14.50;;;;;;;;;;5122935;28;20035;-85
2022/11/05 11:16:28;;;;;;;27.13;20.27;;;;;;;;;;5114726;28;20103;-81
2022/11/05 11:18:55;;;;;;;21.63;15.82;;;;;;;;;;5120331;28;20024;-85
2022/11/05 11:21:22;;;;;;;22.33;15.70;;;;;;;;;;5113599;28;20028;-82
2022/11/05 11:24:08;;;;;;;20.92;17.13;;;;;;;;;;5133042;28;20497;-82
2022/11/05 11:26:37;;;;;;;20.63;16.50;;;;;;;;;;5132608;28;20031;-85
2022/11/05 11:29:13;;;;;;;25.83;16.45;;;;;;;;;;5132406;28;20163;-84
2022/11/05 11:31:40;;;;;;;20.08;16.33;;;;;;;;;;5125846;28;20084;-82
2022/11/05 11:34:26;;;;;;;21.25;16.20;;;;;;;;;;5113634;28;20020;-82
2022/11/05 11:36:55;;;;;;;20.90;15.05;;;;;;;;;;5107754;28;20035;-82
2022/11/05 11:39:25;;;;;;;16.23;12.75;;;;;;;;;;5129680;28;20413;-81
2022/11/05 11:41:53;;;;;;;19.55;13.52;;;;;;;;;;5128604;28;20034;-81
2022/11/05 11:44:22;;;;;;;20.13;14.40;;;;;;;;;;5130446;28;20023;-84
2022/11/05 11:46:49;;;;;;;17.23;13.45;;;;;;;;;;5111455;28;20088;-81
2022/11/05 11:49:33;;;;;;;19.92;13.27;;;;;;;;;;5128589;28;20023;-83
2022/11/05 11:52:02;;;;;;;17.52;12.95;;;;;;;;;;5128625;28;20428;-86
2022/11/05 11:54:29;;;;;;;22.33;13.88;;;;;;;;;;5132117;27;20039;-81
2022/11/05 11:56:56;;;;;;;19.05;13.25;;;;;;;;;;5134135;27;20034;-84
2022/11/05 11:59:26;;;;;;;23.33;14.75;;;;;;;;;;5133056;27;20098;-79
2022/11/05 12:02:10;;;;;;;19.58;13.95;;;;;;;;;;5133749;27;20020;-82
2022/11/05 12:04:39;;;;;;;15.48;11.88;;;;;;;;;;5131477;27;20064;-80
2022/11/05 12:07:24;;;;;;;15.93;12.77;;;;;;;;;;5124960;27;20032;-80
2022/11/05 12:10:09;;;;;;;14.57;12.40;;;;;;;;;;5131223;27;20517;-82
2022/11/05 12:12:47;;;;;;;24.85;19.55;;;;;;;;;;5154231;27;20025;-83
2022/11/05 12:15:16;;;;;;;28.80;23.10;;;;;;;;;;5121757;27;20666;-82
2022/11/05 12:17:51;;;;;;;22.40;16.02;;;;;;;;;;5127635;27;20023;-83
2022/11/05 12:20:29;;;;;;;18.92;14.02;;;;;;;;;;5134434;27;20027;-82
2022/11/05 12:23:14;;;;;;;19.98;14.07;;;;;;;;;;5115854;27;20110;-81
2022/11/05 12:26:19;;;;;;;20.23;13.18;;;;;;;;;;5126658;27;20056;-81
2022/11/05 12:28:45;;;;;;;18.15;12.73;;;;;;;;;;5056599;28;20519;-82
2022/11/05 12:31:22;;;;;;;22.15;13.00;;;;;;;;;;5065018;28;20024;-85
2022/11/05 12:33:53;;;;;;;37.35;15.13;;;;;;;;;;5091737;28;20490;-84
2022/11/05 12:36:29;;;;;;;17.85;13.32;;;;;;;;;;5122814;27;20087;-80
2022/11/05 12:38:55;;;;;;;16.58;14.00;;;;;;;;;;5135655;27;20543;-84
2022/11/05 12:41:27;;;;;;;19.20;14.00;;;;;;;;;;5136249;27;20051;-82
2022/11/05 12:44:03;;;;;;;15.85;12.80;;;;;;;;;;5117504;27;20027;-83
2022/11/05 12:46:33;;;;;;;17.67;12.95;;;;;;;;;;5136013;27;20073;-82
2022/11/05 12:49:00;;;;;;;17.63;13.98;;;;;;;;;;5135585;27;20110;-85
2022/11/05 12:51:44;;;;;;;16.42;14.10;;;;;;;;;;5135737;27;20428;-85
2022/11/05 12:54:36;;;;;;;19.23;14.20;;;;;;;;;;5135537;27;20043;-82
2022/11/05 12:57:03;;;;;;;16.92;14.15;;;;;;;;;;5096600;27;20555;-84
2022/11/05 12:59:32;;;;;;;19.73;13.35;;;;;;;;;;5135750;27;20020;-85
2022/11/05 13:02:18;;;;;;;19.55;14.63;;;;;;;;;;5135566;27;20019;-81
2022/11/05 13:05:04;;;;;;;23.45;14.52;;;;;;;;;;5100944;28;20039;-81
2022/11/05 13:07:32;;;;;;;18.95;13.70;;;;;;;;;;5113582;28;20475;-84
2022/11/05 13:10:07;;;;;;;16.02;13.30;;;;;;;;;;5114720;28;20023;-83
2022/11/05 13:12:37;;;;;;;20.52;15.23;;;;;;;;;;5114758;28;20024;-83
2022/11/05 13:15:23;;;;;;;18.63;13.63;;;;;;;;;;5114868;28;20028;-83
2022/11/05 13:17:51;;;;;;;17.48;13.27;;;;;;;;;;5114682;28;20027;-83
2022/11/05 13:20:32;;;;;;;17.70;13.65;;;;;;;;;;5114423;28;20402;-82
2022/11/05 13:23:16;;;;;;;17.10;14.07;;;;;;;;;;5114270;28;20479;-82
2022/11/05 13:25:49;;;;;;;19.23;13.15;;;;;;;;;;5096274;28;20020;-83
2022/11/05 13:28:15;;;;;;;25.20;13.88;;;;;;;;;;5125355;27;20023;-82
2022/11/05 13:30:43;;;;;;;17.55;13.60;;;;;;;;;;5134540;27;20019;-82
2022/11/05 13:33:15;;;;;;;15.35;12.70;;;;;;;;;;5130716;27;20139;-86
2022/11/05 13:39:02;;;;;;;20.30;11.80;;;;;;;;;;5135076;27;20038;-84
2022/11/05 13:41:37;;;;;;;17.02;12.35;;;;;;;;;;5133593;27;20505;-84
2022/11/05 13:44:22;;;;;;;18.88;12.85;;;;;;;;;;5133956;27;20031;-85
2022/11/05 13:47:03;;;;;;;14.40;12.85;;;;;;;;;;5134857;27;20034;-84
2022/11/05 13:49:48;;;;;;;18.23;12.52;;;;;;;;;;5133246;27;20019;-83
2022/11/05 13:52:32;;;;;;;18.10;13.40;;;;;;;;;;5134322;27;20432;-87
2022/11/05 13:54:58;;;;;;;;;;;;;;;;;;5131537;27;20035;-82
2022/11/05 13:57:24;;;;;;;17.25;11.88;;;;;;;;;;5134526;27;19998;-83
2022/11/05 14:00:02;;;;;;;16.20;13.73;;;;;;;;;;5134641;27;20034;-83
2022/11/05 14:02:31;;;;;;;20.52;14.07;;;;;;;;;;5134496;27;20092;-85
2022/11/05 14:05:01;;;;;;;17.10;13.57;;;;;;;;;;5134221;27;20038;-84
2022/11/05 14:07:28;;;;;;;22.67;15.45;;;;;;;;;;5133397;27;20027;-80
2022/11/05 14:09:56;;;;;;;26.63;16.20;;;;;;;;;;5134090;27;20416;-82
2022/11/05 14:12:26;;;;;;;27.25;21.00;;;;;;;;;;5132797;27;20034;-82
2022/11/05 14:14:54;;;;;;;25.05;18.92;;;;;;;;;;5132715;27;20444;-84
2022/11/05 14:17:47;;;;;;;25.75;18.77;;;;;;;;;;5134272;27;20043;-87
2022/11/05 14:20:25;;;;;;;22.90;17.88;;;;;;;;;;5128031;27;20034;-83
2022/11/05 14:22:51;;;;;;;25.52;18.10;;;;;;;;;;5134027;27;20027;-86
2022/11/05 14:25:17;;;;;;;22.73;19.45;;;;;;;;;;5133892;27;20026;-83
2022/11/05 14:27:45;;;;;;;28.33;21.60;;;;;;;;;;5134228;27;20027;-82
2022/11/05 14:30:30;;;;;;;30.17;23.33;;;;;;;;;;5133705;27;20023;-84
2022/11/05 14:32:56;;;;;;;;;;;;;;;;;;5134073;27;20015;-83
2022/11/05 14:35:22;;;;;;;18.95;16.35;;;;;;;;;;5133849;27;19911;-85
2022/11/05 14:37:58;;;;;;;23.88;17.83;;;;;;;;;;5132592;27;20031;-85
2022/11/05 14:40:26;;;;;;;21.33;17.55;;;;;;;;;;5133717;27;20039;-85
2022/11/05 14:42:58;;;;;;;20.98;15.20;;;;;;;;;;5132476;27;20027;-82
2022/11/05 14:45:27;;;;;;;24.27;16.40;;;;;;;;;;5133977;27;20031;-83
2022/11/05 14:47:55;;;;;;;18.70;14.80;;;;;;;;;;5133577;27;20028;-82
2022/11/05 14:50:25;;;;;;;19.83;15.00;;;;;;;;;;5133608;27;20097;-83
2022/11/05 14:52:55;;;;;;;21.35;16.17;;;;;;;;;;5133233;27;20075;-84
2022/11/05 14:55:27;;;;;;;30.58;24.75;;;;;;;;;;5133741;27;20022;-83
2022/11/05 14:57:53;;;;;;;17.95;13.07;;;;;;;;;;5133568;27;20020;-82
2022/11/05 15:00:28;;;;;;;19.92;13.80;;;;;;;;;;5133657;27;20023;-83
2022/11/05 15:03:12;;;;;;;18.17;14.05;;;;;;;;;;5133657;27;20458;-82
2022/11/05 15:05:38;;;;;;;;;;;;;;;;;;5134055;27;20055;-83
2022/11/05 15:08:23;;;;;;;18.05;13.63;;;;;;;;;;5133650;27;20369;-83
2022/11/05 15:10:50;;;;;;;19.83;14.10;;;;;;;;;;5133544;28;20019;-83
2022/11/05 15:13:34;;;;;;;19.90;13.55;;;;;;;;;;5133092;28;20037;-82
2022/11/05 15:16:02;;;;;;;19.15;13.93;;;;;;;;;;5131817;28;20023;-82
2022/11/05 15:18:31;;;;;;;16.95;13.65;;;;;;;;;;5132058;28;20027;-82
2022/11/05 15:21:03;;;;;;;30.73;22.67;;;;;;;;;;5133236;28;20020;-82
2022/11/05 15:23:36;;;;;;;31.27;24.02;;;;;;;;;;5131551;28;20035;-81
2022/11/05 15:26:05;;;;;;;20.67;15.93;;;;;;;;;;5132045;28;20023;-83
2022/11/05 15:28:45;;;;;;;22.98;17.05;;;;;;;;;;5133363;28;20055;-83